Time;durP1;ratioP1;P1;durP2;ratioP2;P2;SDS_P1;SDS_P2;PMS_P1;PMS_P2;Temp;Humidity;BMP_temperature;BMP_pressure;BME280_temperature;BME280_humidity;BME280_pressure;Samples;Min_cycle;Max_cycle;Signal;HPM_P1;HPM_P2
2022/12/14 00:00:50;;;;;;;203.40;72.65;;;;;;;-7.92;74.29;98118.19;5071453;28;20016;-71
2022/12/14 00:03:16;;;;;;;196.27;71.03;;;;;;;-7.97;74.01;98120.63;5089763;28;20031;-71
2022/12/14 00:05:43;;;;;;;211.60;72.03;;;;;;;-8.02;74.26;98118.50;5089098;28;20040;-71
2022/12/14 00:08:09;;;;;;;210.65;71.63;;;;;;;-8.02;74.14;98117.69;5089124;28;20059;-72
2022/12/14 00:10:36;;;;;;;198.48;66.47;;;;;;;-8.04;74.06;98115.19;5089587;28;20040;-72
2022/12/14 00:13:02;;;;;;;179.73;63.10;;;;;;;-8.04;74.43;98119.72;5072111;28;20020;-72
2022/12/14 00:15:28;;;;;;;171.85;61.35;;;;;;;-8.02;74.35;98123.00;5071647;28;20480;-73
2022/12/14 00:17:54;;;;;;;177.15;61.83;;;;;;;-8.00;74.37;98124.47;5089582;28;20024;-73
2022/12/14 00:20:19;;;;;;;180.02;63.28;;;;;;;-7.94;74.23;98120.22;5071311;28;20044;-73
2022/12/14 00:22:46;;;;;;;186.32;62.90;;;;;;;-7.88;74.50;98110.69;5089352;28;20134;-73
2022/12/14 00:25:11;;;;;;;158.38;56.17;;;;;;;-7.83;74.54;98110.97;5089020;28;20101;-73
2022/12/14 00:27:44;;;;;;;156.90;56.25;;;;;;;-7.78;74.69;98105.91;5071565;28;20063;-72
2022/12/14 00:30:12;;;;;;;146.23;54.35;;;;;;;-7.71;74.45;98114.78;5089706;28;20165;-72
2022/12/14 00:32:38;;;;;;;148.88;51.33;;;;;;;-7.64;74.95;98112.22;5071641;28;20783;-71
2022/12/14 00:35:04;;;;;;;133.02;50.28;;;;;;;-7.58;74.86;98108.78;5089860;28;20131;-72
2022/12/14 00:37:30;;;;;;;135.25;50.45;;;;;;;-7.53;74.94;98110.88;5070816;28;20047;-70
2022/12/14 00:39:56;;;;;;;141.75;50.80;;;;;;;-7.50;74.77;98105.19;5089377;28;20383;-71
2022/12/14 00:42:21;;;;;;;136.38;49.88;;;;;;;-7.45;74.68;98107.28;5089050;28;20050;-72
2022/12/14 00:44:46;;;;;;;141.60;50.42;;;;;;;-7.42;74.66;98106.91;5090342;28;20062;-72
2022/12/14 00:47:12;;;;;;;143.25;51.95;;;;;;;-7.36;74.63;98106.16;5090598;28;20016;-72
2022/12/14 00:49:37;;;;;;;148.27;50.97;;;;;;;-7.37;74.47;98108.00;5070936;28;20669;-74
2022/12/14 00:52:02;;;;;;;138.02;49.53;;;;;;;-7.33;74.63;98103.91;5072442;28;20024;-72
2022/12/14 00:54:28;;;;;;;131.70;47.85;;;;;;;-7.26;74.88;98101.34;5071338;28;20691;-72
2022/12/14 00:56:53;;;;;;;131.60;48.00;;;;;;;-7.24;74.65;98098.47;5086969;28;20024;-72
2022/12/14 00:59:19;;;;;;;121.18;44.22;;;;;;;-7.20;75.03;98097.06;5070225;28;20028;-74
2022/12/14 01:01:44;;;;;;;119.53;44.45;;;;;;;-7.16;74.88;98095.69;5089198;28;20025;-74
2022/12/14 01:04:16;;;;;;;122.25;46.72;;;;;;;-7.14;74.62;98088.31;5089351;28;20017;-72
2022/12/14 01:06:46;;;;;;;130.48;47.85;;;;;;;-7.13;74.70;98078.50;5090931;28;20031;-72
2022/12/14 01:09:11;;;;;;;124.97;47.83;;;;;;;-7.12;74.63;98078.28;5093008;28;20051;-73
2022/12/14 01:11:39;;;;;;;132.70;47.97;;;;;;;-7.14;74.19;98082.19;5093368;28;20468;-72
2022/12/14 01:14:05;;;;;;;122.95;45.67;;;;;;;-7.18;74.59;98079.06;5092117;28;20024;-73
2022/12/14 01:16:30;;;;;;;127.10;47.08;;;;;;;-7.22;74.18;98077.78;5092201;28;20096;-73
2022/12/14 01:18:58;;;;;;;132.65;46.10;;;;;;;-7.24;74.07;98077.97;5091860;28;20099;-72
2022/12/14 01:21:24;;;;;;;132.90;47.55;;;;;;;-7.26;73.87;98076.50;5091911;28;20506;-72
2022/12/14 01:23:53;;;;;;;124.10;44.35;;;;;;;-7.29;74.12;98071.56;5072779;28;20240;-73
2022/12/14 01:26:19;;;;;;;125.78;44.42;;;;;;;-7.34;73.72;98061.47;5091602;28;20055;-72
2022/12/14 01:28:45;;;;;;;132.50;47.67;;;;;;;-7.39;73.98;98063.88;5092092;28;20024;-71
2022/12/14 01:31:16;;;;;;;135.45;45.75;;;;;;;-7.47;73.57;98060.34;5090642;28;20028;-71
2022/12/14 01:33:42;;;;;;;143.57;47.33;;;;;;;-7.52;73.52;98065.41;5090125;28;20024;-71
2022/12/14 01:36:13;;;;;;;149.52;48.50;;;;;;;-7.59;73.32;98058.38;5091658;28;20028;-72
2022/12/14 01:38:39;;;;;;;142.57;50.45;;;;;;;-7.66;73.57;98060.97;5091319;28;20055;-73
2022/12/14 01:41:08;;;;;;;155.80;52.78;;;;;;;-7.72;73.21;98056.41;5089446;28;20071;-73
2022/12/14 01:43:55;;;;;;;146.43;52.50;;;;;;;-7.79;73.41;98059.00;5091756;28;20477;-73
2022/12/14 01:46:29;;;;;;;153.10;53.33;;;;;;;-7.86;73.34;98058.91;5091684;28;20031;-73
2022/12/14 01:49:01;;;;;;;148.40;50.83;;;;;;;-7.92;72.98;98063.16;5090737;28;20545;-74
2022/12/14 01:51:30;;;;;;;142.95;50.58;;;;;;;-7.96;72.88;98063.72;5091729;28;20024;-73
2022/12/14 01:53:57;;;;;;;155.63;51.42;;;;;;;-8.02;72.87;98059.94;5091876;28;20108;-73
2022/12/14 01:56:23;;;;;;;143.98;50.90;;;;;;;-8.07;72.89;98060.50;5073994;28;20115;-73
2022/12/14 01:58:49;;;;;;;147.05;53.47;;;;;;;-8.11;72.77;98056.56;5089175;28;20362;-73
2022/12/14 02:01:15;;;;;;;142.95;50.67;;;;;;;-8.12;73.35;98059.41;5091036;28;20081;-73
2022/12/14 02:03:48;;;;;;;166.00;54.67;;;;;;;-8.17;72.71;98062.63;5091390;28;20042;-73
2022/12/14 02:06:25;;;;;;;141.90;51.15;;;;;;;-8.22;73.04;98047.22;5091017;28;20093;-73
2022/12/14 02:08:52;;;;;;;151.95;51.30;;;;;;;-8.24;72.73;98056.41;5091267;28;20028;-73
2022/12/14 02:11:28;;;;;;;142.43;49.15;;;;;;;-8.28;72.79;98052.44;5073027;28;20075;-73
2022/12/14 02:13:54;;;;;;;143.88;50.70;;;;;;;-8.29;72.96;98056.97;5091485;28;20028;-73
2022/12/14 02:16:19;;;;;;;137.85;48.83;;;;;;;-8.31;73.00;98053.66;5090821;28;20045;-73
2022/12/14 02:18:44;;;;;;;138.15;46.35;;;;;;;-8.32;72.90;98045.84;5089351;28;20566;-73
2022/12/14 02:21:34;;;;;;;134.27;49.17;;;;;;;-8.32;72.64;98044.03;5090052;28;20044;-73
2022/12/14 02:24:24;;;;;;;144.25;48.63;;;;;;;-8.33;73.10;98045.03;5091390;28;20077;-73
2022/12/14 02:27:23;;;;;;;146.07;49.90;;;;;;;-8.37;72.33;98039.28;5090064;28;20027;-73
2022/12/14 02:30:05;;;;;;;160.35;50.67;;;;;;;-8.40;72.64;98039.63;5071803;28;20155;-72
2022/12/14 02:32:55;;;;;;;146.70;49.78;;;;;;;-8.41;72.99;98037.16;5089732;28;20024;-72
2022/12/14 02:35:49;;;;;;;145.30;48.53;;;;;;;-8.45;72.67;98034.03;5089873;28;20635;-73
2022/12/14 02:38:52;;;;;;;142.93;48.35;;;;;;;-8.48;72.44;98026.44;5089483;28;20031;-73
2022/12/14 02:41:37;;;;;;;151.70;48.30;;;;;;;-8.47;72.72;98012.13;5091264;28;20034;-73
2022/12/14 02:44:45;;;;;;;141.93;44.33;;;;;;;-8.48;72.38;98017.66;5091731;28;20115;-73
2022/12/14 02:47:23;;;;;;;135.05;43.15;;;;;;;-8.47;72.39;98014.78;5072082;28;20105;-74
2022/12/14 02:49:57;;;;;;;120.68;41.42;;;;;;;-8.46;72.30;98018.25;5090202;28;20119;-74
2022/12/14 02:52:34;;;;;;;122.88;40.10;;;;;;;-8.44;72.95;98017.06;5091214;28;20656;-73
2022/12/14 02:55:09;;;;;;;117.55;39.92;;;;;;;-8.42;72.57;98023.03;5091191;28;20028;-74
2022/12/14 02:57:39;;;;;;;115.63;38.78;;;;;;;-8.39;72.68;98013.84;5090786;28;20071;-73
2022/12/14 03:00:06;;;;;;;110.18;39.88;;;;;;;-8.39;72.47;98012.03;5091134;28;20633;-73
2022/12/14 03:02:42;;;;;;;110.63;39.13;;;;;;;-8.37;72.68;98012.69;5090753;28;20028;-71
2022/12/14 03:05:08;;;;;;;107.78;39.58;;;;;;;-8.33;72.60;98002.47;5091179;28;20031;-71
2022/12/14 03:07:41;;;;;;;118.43;40.47;;;;;;;-8.32;72.74;98012.09;5090407;28;20028;-71
2022/12/14 03:10:29;;;;;;;109.25;38.58;;;;;;;-8.31;72.34;98010.25;5090935;28;20031;-71
2022/12/14 03:13:24;;;;;;;100.82;36.35;;;;;;;-8.30;72.83;97998.59;5090040;28;20044;-71
2022/12/14 03:15:56;;;;;;;103.32;35.95;;;;;;;-8.25;72.80;98001.53;5081474;28;20096;-71
2022/12/14 03:18:24;;;;;;;105.55;36.55;;;;;;;-8.22;72.57;98001.16;5090175;28;20023;-72
2022/12/14 03:20:53;;;;;;;103.30;36.55;;;;;;;-8.21;72.85;97986.84;5090588;28;20052;-72
2022/12/14 03:23:28;;;;;;;93.18;34.85;;;;;;;-8.19;72.44;97992.81;5090694;28;20028;-71
2022/12/14 03:26:11;;;;;;;100.43;36.30;;;;;;;-8.15;72.43;97986.09;5072539;28;20361;-72
2022/12/14 03:28:45;;;;;;;96.50;36.53;;;;;;;-8.19;72.31;97990.16;5089899;28;20028;-72
2022/12/14 03:31:21;;;;;;;97.78;36.92;;;;;;;-8.19;72.12;97989.34;5090445;28;20059;-73
2022/12/14 03:33:50;;;;;;;101.70;36.83;;;;;;;-8.19;72.31;97979.50;5090652;28;20059;-72
2022/12/14 03:36:33;;;;;;;109.28;37.25;;;;;;;-8.17;72.20;97984.66;5090606;28;20031;-72
2022/12/14 03:39:01;;;;;;;113.40;39.38;;;;;;;-8.16;72.26;97981.78;5089899;28;20039;-73
2022/12/14 03:41:45;;;;;;;115.20;39.10;;;;;;;-8.18;72.55;97985.66;5090400;28;20028;-73
2022/12/14 03:44:20;;;;;;;114.65;40.03;;;;;;;-8.18;72.34;97986.47;5090480;28;20598;-73
2022/12/14 03:46:48;;;;;;;113.30;41.28;;;;;;;-8.17;71.89;97989.97;5072170;28;20028;-72
2022/12/14 03:49:54;;;;;;;126.88;43.50;;;;;;;-8.19;72.42;97995.47;5071598;28;20035;-73
2022/12/14 03:52:28;;;;;;;126.35;41.55;;;;;;;-8.14;71.93;97995.75;5089794;28;20332;-72
2022/12/14 03:55:03;;;;;;;124.00;42.33;;;;;;;-8.13;71.79;97997.38;5089811;28;20077;-73
2022/12/14 03:58:04;;;;;;;111.45;38.80;;;;;;;-8.13;71.83;97996.53;5089912;28;20056;-73
2022/12/14 04:00:39;;;;;;;113.97;39.00;;;;;;;-8.09;71.90;97993.34;5089630;28;20032;-73
2022/12/14 04:03:22;;;;;;;109.82;37.17;;;;;;;-8.16;72.21;97994.28;5089970;28;20028;-72
2022/12/14 04:06:25;;;;;;;112.57;40.15;;;;;;;-8.15;71.97;97993.28;5072008;28;20096;-73
2022/12/14 04:09:03;;;;;;;101.57;38.03;;;;;;;-8.13;71.99;97992.06;5052553;28;20047;-73
2022/12/14 04:20:15;;;;;;;90.30;33.70;;;;;;;-8.02;72.01;97971.31;5088978;28;20074;-72
2022/12/14 04:22:47;;;;;;;95.43;34.25;;;;;;;-8.02;71.99;97966.78;5088027;28;20663;-73
2022/12/14 04:31:15;;;;;;;100.80;34.42;;;;;;;-7.99;71.84;97952.31;5086703;28;20058;-73
2022/12/14 04:33:48;;;;;;;93.00;34.70;;;;;;;-7.96;72.22;97951.94;5088636;28;20491;-72
2022/12/14 04:36:26;;;;;;;102.60;36.05;;;;;;;-7.99;72.13;97952.31;5089698;28;20130;-72
2022/12/14 04:39:14;;;;;;;94.57;36.05;;;;;;;-7.95;72.03;97958.91;5071370;28;20488;-72
2022/12/14 04:41:44;;;;;;;99.95;34.97;;;;;;;-7.92;72.02;97954.00;5090511;28;20027;-72
2022/12/14 04:44:13;;;;;;;;;;;;;;;-7.90;72.42;97951.13;5094582;28;20016;-72
2022/12/14 04:46:40;;;;;;;89.63;33.50;;;;;;;-7.88;71.67;97942.97;5090710;28;20303;-73
2022/12/14 04:49:15;;;;;;;94.35;34.75;;;;;;;-7.90;72.15;97932.50;5093633;28;20020;-72
2022/12/14 04:51:53;;;;;;;86.95;34.97;;;;;;;-7.89;72.06;97926.16;5092716;28;20024;-72
2022/12/14 04:54:28;;;;;;;97.03;36.95;;;;;;;-7.91;71.49;97925.53;5075293;28;20032;-72
2022/12/14 04:57:07;;;;;;;92.72;34.67;;;;;;;-7.88;71.98;97922.50;5093481;28;20030;-73
2022/12/14 04:59:33;;;;;;;88.30;35.08;;;;;;;-7.85;71.67;97911.47;5075090;28;20027;-73
2022/12/14 05:02:07;;;;;;;94.70;35.70;;;;;;;-7.82;71.82;97911.09;5092958;28;20036;-72
2022/12/14 05:04:40;;;;;;;94.43;35.92;;;;;;;-7.82;71.63;97904.94;5093212;28;20031;-72
2022/12/14 05:07:12;;;;;;;92.85;35.85;;;;;;;-7.82;71.94;97902.28;5093741;28;20032;-72
2022/12/14 05:09:42;;;;;;;83.47;33.47;;;;;;;-7.84;71.57;97896.31;5089681;28;20067;-72
2022/12/14 05:12:43;;;;;;;91.28;34.45;;;;;;;-7.85;71.63;97892.84;5074563;28;20081;-72
2022/12/14 05:15:13;;;;;;;92.82;35.13;;;;;;;-7.85;71.72;97894.69;5030980;28;20036;-73
2022/12/14 05:17:39;;;;;;;;;;;;;;;-7.87;71.33;97894.84;5093410;28;20028;-73
2022/12/14 05:20:11;;;;;;;100.10;34.35;;;;;;;-7.91;71.17;97901.56;5092243;28;19924;-72
2022/12/14 05:22:37;;;;;;;91.20;34.30;;;;;;;-7.90;71.32;97897.09;5092462;28;20055;-73
2022/12/14 05:25:03;;;;;;;94.10;34.03;;;;;;;-7.91;71.80;97893.59;5092849;28;20522;-72
2022/12/14 05:27:29;;;;;;;93.75;34.72;;;;;;;-7.89;71.35;97891.56;5093197;28;20024;-72
2022/12/14 05:29:55;;;;;;;89.13;34.45;;;;;;;-7.87;71.52;97886.06;5092401;28;20077;-73
2022/12/14 05:32:20;;;;;;;77.53;31.92;;;;;;;-7.85;71.72;97890.16;5092194;28;20035;-73
2022/12/14 05:34:45;;;;;;;90.65;33.92;;;;;;;-7.81;71.59;97893.28;5092644;28;20032;-71
2022/12/14 05:37:11;;;;;;;95.80;34.38;;;;;;;-7.76;71.77;97896.19;5092435;28;20042;-71
2022/12/14 05:39:36;;;;;;;94.15;34.97;;;;;;;-7.75;71.68;97894.34;5092344;28;21345;-71
2022/12/14 05:42:01;;;;;;;90.20;34.28;;;;;;;-7.77;71.64;97890.03;5091939;28;20028;-71
2022/12/14 05:44:27;;;;;;;85.57;33.15;;;;;;;-7.73;71.73;97893.13;5092375;28;20488;-71
2022/12/14 05:46:52;;;;;;;90.60;35.75;;;;;;;-7.69;71.92;97891.72;5092457;28;20012;-71
2022/12/14 05:49:18;;;;;;;95.60;38.53;;;;;;;-7.70;71.72;97897.25;5092451;28;20035;-71
2022/12/14 05:51:45;;;;;;;90.82;35.78;;;;;;;-7.67;71.44;97896.88;5091713;28;20396;-71
2022/12/14 05:54:10;;;;;;;85.82;34.53;;;;;;;-7.66;71.67;97886.03;5092241;28;20043;-71
2022/12/14 05:56:36;;;;;;;88.25;36.00;;;;;;;-7.66;71.64;97894.00;5073837;28;20059;-71
2022/12/14 05:59:01;;;;;;;121.25;39.42;;;;;;;-7.64;71.46;97899.16;5091958;28;20024;-71
2022/12/14 06:01:27;;;;;;;101.75;37.03;;;;;;;-7.61;71.69;97906.75;5092124;28;20028;-71
2022/12/14 06:03:52;;;;;;;91.32;35.50;;;;;;;-7.59;71.66;97899.41;5091875;28;20031;-71
2022/12/14 06:06:18;;;;;;;80.10;32.88;;;;;;;-7.58;71.24;97890.41;5073984;28;20024;-71
2022/12/14 06:08:44;;;;;;;70.05;28.17;;;;;;;-7.58;71.57;97884.22;5092085;28;21654;-71
2022/12/14 06:11:13;;;;;;;73.80;29.00;;;;;;;-7.57;71.31;97886.72;5091941;28;20028;-72
2022/12/14 06:13:40;;;;;;;76.25;30.33;;;;;;;-7.56;71.37;97887.53;5091328;28;21461;-71
2022/12/14 06:16:12;;;;;;;74.20;29.10;;;;;;;-7.60;71.26;97881.78;5073790;28;20030;-71
2022/12/14 06:18:47;;;;;;;74.90;27.73;;;;;;;-7.60;71.59;97884.44;5092445;28;20028;-72
2022/12/14 06:21:14;;;;;;;76.70;30.92;;;;;;;-7.63;71.13;97882.16;5074051;28;20075;-71
2022/12/14 06:23:40;;;;;;;68.05;27.60;;;;;;;-7.70;71.13;97878.63;5092231;28;20032;-71
2022/12/14 06:26:06;;;;;;;71.43;27.20;;;;;;;-7.79;70.88;97876.09;5074420;28;20350;-71
2022/12/14 06:28:34;;;;;;;69.55;28.48;;;;;;;-7.81;70.89;97878.13;5092310;28;20024;-72
2022/12/14 06:31:00;;;;;;;68.75;28.90;;;;;;;-7.85;70.71;97866.22;5092863;28;20085;-72
2022/12/14 06:33:26;;;;;;;74.22;28.92;;;;;;;-7.88;71.12;97861.25;5057588;28;20028;-72
2022/12/14 06:35:52;;;;;;;73.88;30.38;;;;;;;-7.92;70.68;97866.16;5092879;28;20020;-71
2022/12/14 06:38:17;;;;;;;69.90;27.98;;;;;;;-7.95;71.02;97858.56;5092105;28;20443;-72
2022/12/14 06:40:43;;;;;;;69.28;30.05;;;;;;;-7.95;71.01;97857.75;5092277;28;20221;-71
2022/12/14 06:43:08;;;;;;;67.05;27.85;;;;;;;-7.90;70.97;97859.81;5092282;28;20357;-73
2022/12/14 06:45:34;;;;;;;74.55;29.77;;;;;;;-7.86;71.38;97864.56;5091768;28;20028;-71
2022/12/14 06:48:00;;;;;;;70.35;29.15;;;;;;;-7.81;70.93;97864.81;5092022;28;20024;-73
2022/12/14 06:50:28;;;;;;;72.20;31.50;;;;;;;-7.80;71.12;97855.81;5091767;28;20046;-72
2022/12/14 06:52:56;;;;;;;66.97;28.33;;;;;;;-7.79;71.45;97857.47;5091997;28;20080;-73
2022/12/14 06:55:23;;;;;;;85.50;36.92;;;;;;;-7.79;70.80;97851.31;5091713;28;20032;-73
2022/12/14 06:57:50;;;;;;;93.53;39.45;;;;;;;-7.82;70.89;97857.03;5091717;28;20036;-72
2022/12/14 07:00:17;;;;;;;98.68;41.45;;;;;;;-7.85;70.86;97852.91;5073668;28;20034;-72
2022/12/14 07:02:42;;;;;;;105.20;46.05;;;;;;;-7.87;70.72;97838.16;5091701;28;20020;-72
2022/12/14 07:05:07;;;;;;;131.57;50.90;;;;;;;-7.85;71.17;97839.59;5090415;28;20587;-72
2022/12/14 07:07:34;;;;;;;129.27;55.13;;;;;;;-7.84;71.21;97833.25;5091609;28;20031;-73
2022/12/14 07:09:59;;;;;;;136.02;57.58;;;;;;;-7.82;70.81;97839.19;5091260;28;20032;-73
2022/12/14 07:12:26;;;;;;;110.75;50.72;;;;;;;-7.82;71.41;97835.72;5091889;28;20027;-73
2022/12/14 07:14:52;;;;;;;96.68;46.97;;;;;;;-7.79;70.94;97830.03;5072880;28;20515;-73
2022/12/14 07:17:18;;;;;;;93.68;39.65;;;;;;;-7.79;70.71;97828.16;5091028;28;20107;-73
2022/12/14 07:19:45;;;;;;;101.32;39.58;;;;;;;-7.75;70.94;97817.97;5091049;28;20048;-72
2022/12/14 07:22:10;;;;;;;122.28;42.10;;;;;;;-7.72;70.98;97824.72;5090014;28;20028;-73
2022/12/14 07:24:36;;;;;;;119.85;42.28;;;;;;;-7.72;71.34;97819.41;5089016;28;20601;-73
2022/12/14 07:27:01;;;;;;;112.32;38.47;;;;;;;-7.69;70.90;97825.16;5089678;28;20024;-73
2022/12/14 07:29:27;;;;;;;103.55;37.33;;;;;;;-7.70;70.88;97820.03;5089823;28;20035;-73
2022/12/14 07:31:52;;;;;;;86.10;38.60;;;;;;;-7.69;71.01;97819.03;5072071;28;20052;-73
2022/12/14 07:34:18;;;;;;;96.18;42.13;;;;;;;-7.70;71.38;97812.84;5089042;28;20435;-72
2022/12/14 07:36:43;;;;;;;88.03;36.75;;;;;;;-7.66;70.93;97818.63;5088572;28;20051;-72
2022/12/14 07:39:13;;;;;;;81.03;33.25;;;;;;;-7.66;70.98;97822.09;5089486;28;20036;-74
2022/12/14 07:41:39;;;;;;;;;;;;;;;-7.58;70.95;97825.66;5089351;28;20040;-74
2022/12/14 07:44:04;;;;;;;69.32;27.90;;;;;;;-7.55;71.37;97823.44;5088603;28;19928;-73
2022/12/14 07:46:30;;;;;;;60.53;27.73;;;;;;;-7.50;71.54;97828.16;5089144;28;20102;-73
2022/12/14 07:48:57;;;;;;;71.28;28.15;;;;;;;-7.44;71.52;97824.72;5089211;28;20030;-74
2022/12/14 07:51:26;;;;;;;72.65;29.77;;;;;;;-7.37;71.67;97828.25;5088601;28;20089;-74
2022/12/14 07:53:51;;;;;;;67.65;29.35;;;;;;;-7.30;71.26;97817.63;5071065;28;20031;-72
2022/12/14 07:56:23;;;;;;;83.18;36.60;;;;;;;-7.21;71.89;97823.59;5089452;28;20122;-73
2022/12/14 07:58:49;;;;;;;75.78;33.80;;;;;;;-7.13;71.69;97820.78;5089679;28;20032;-73
2022/12/14 08:01:17;;;;;;;68.53;30.30;;;;;;;-7.10;71.79;97811.53;5086342;28;20032;-74
2022/12/14 08:03:46;;;;;;;63.85;28.60;;;;;;;-7.10;71.58;97817.72;5088721;28;20483;-73
2022/12/14 08:06:13;;;;;;;66.63;29.40;;;;;;;-7.07;71.34;97825.31;5088036;28;20093;-73
2022/12/14 08:08:39;;;;;;;70.90;29.40;;;;;;;-6.97;71.56;97824.94;5088346;28;20119;-73
2022/12/14 08:11:05;;;;;;;70.13;30.17;;;;;;;-6.89;71.53;97826.59;5089171;28;20032;-73
2022/12/14 08:13:31;;;;;;;64.97;29.63;;;;;;;-6.81;71.65;97828.28;5088791;28;20444;-74
2022/12/14 08:16:04;;;;;;;71.60;33.10;;;;;;;-6.76;71.62;97828.53;5070501;28;20031;-73
2022/12/14 08:18:30;;;;;;;74.30;32.53;;;;;;;-6.72;71.60;97837.72;5088609;28;20023;-73
2022/12/14 08:20:55;;;;;;;79.30;32.92;;;;;;;-6.73;71.48;97823.59;5088553;28;20488;-73
2022/12/14 08:23:21;;;;;;;76.57;32.83;;;;;;;-6.71;71.58;97825.25;5088855;28;20070;-72
2022/12/14 08:25:55;;;;;;;67.43;30.35;;;;;;;-6.70;71.54;97826.88;5089236;28;20084;-72
2022/12/14 08:28:21;;;;;;;73.68;30.65;;;;;;;-6.69;71.55;97823.19;5087521;28;20028;-73
2022/12/14 08:30:47;;;;;;;71.35;30.40;;;;;;;-6.68;71.16;97822.16;5088730;28;20028;-73
2022/12/14 08:33:12;;;;;;;69.43;31.40;;;;;;;-6.66;70.91;97828.94;5089376;28;20024;-73
2022/12/14 08:35:38;;;;;;;70.28;32.83;;;;;;;-6.69;71.21;97817.84;5070444;28;20027;-74
2022/12/14 08:38:03;;;;;;;72.78;35.15;;;;;;;-6.68;71.80;97824.84;5088642;28;20035;-75
2022/12/14 08:40:29;;;;;;;70.68;31.52;;;;;;;-6.65;71.37;97827.91;5070171;28;20157;-75
2022/12/14 08:42:54;;;;;;;70.65;32.53;;;;;;;-6.55;71.59;97829.38;5088998;28;20024;-74
2022/12/14 08:45:20;;;;;;;66.25;28.17;;;;;;;-6.49;71.43;97825.91;5089399;28;20027;-72
2022/12/14 08:47:46;;;;;;;89.22;36.22;;;;;;;-6.37;71.56;97821.63;5070241;28;20020;-76
2022/12/14 08:50:12;;;;;;;67.68;29.65;;;;;;;-6.31;71.58;97820.00;5089002;28;20036;-75
2022/12/14 08:52:37;;;;;;;77.53;30.95;;;;;;;-6.23;71.81;97810.97;5087322;28;20035;-78
2022/12/14 08:55:04;;;;;;;76.28;30.75;;;;;;;-6.18;71.66;97820.03;5086196;28;20024;-78
2022/12/14 08:57:30;;;;;;;80.10;31.60;;;;;;;-6.10;71.50;97813.66;5070401;28;20121;-79
2022/12/14 08:59:55;;;;;;;74.60;29.67;;;;;;;-6.00;71.98;97800.69;5070584;28;20058;-78
2022/12/14 09:02:21;;;;;;;74.13;29.17;;;;;;;-5.91;71.64;97795.94;5066796;28;20025;-80
2022/12/14 09:04:46;;;;;;;66.15;29.33;;;;;;;-5.82;71.81;97799.22;5088543;28;20425;-79
2022/12/14 09:07:11;;;;;;;70.97;27.58;;;;;;;-5.71;71.86;97797.81;5085195;28;20476;-81
2022/12/14 09:09:37;;;;;;;72.65;30.60;;;;;;;-5.59;72.10;97795.31;5087070;28;20036;-81
2022/12/14 09:12:06;;;;;;;67.03;29.23;;;;;;;-5.53;71.80;97800.63;5070233;28;20028;-81
2022/12/14 09:14:33;;;;;;;71.57;29.35;;;;;;;-5.51;71.36;97800.44;5069847;28;20032;-83
2022/12/14 09:16:59;;;;;;;67.85;27.67;;;;;;;-5.53;71.58;97800.63;5087601;28;20511;-78
2022/12/14 09:19:25;;;;;;;70.10;29.42;;;;;;;-5.47;71.68;97815.00;5087131;28;20419;-81
2022/12/14 09:21:51;;;;;;;71.78;29.88;;;;;;;-5.38;71.71;97802.25;5088537;28;20143;-79
2022/12/14 09:24:16;;;;;;;78.07;32.55;;;;;;;-5.30;71.50;97794.00;5088881;28;20100;-77
2022/12/14 09:26:42;;;;;;;72.38;29.88;;;;;;;-5.28;71.67;97781.22;5088147;28;20468;-77
2022/12/14 09:29:13;;;;;;;65.25;28.52;;;;;;;-5.26;71.71;97775.69;5072112;28;20064;-78
2022/12/14 09:31:39;;;;;;;70.13;30.60;;;;;;;-5.18;71.39;97788.00;5093494;28;20084;-81
2022/12/14 09:34:04;;;;;;;70.63;30.95;;;;;;;-5.09;71.53;97776.03;5074119;28;20086;-80
2022/12/14 09:36:30;;;;;;;69.22;28.98;;;;;;;-5.02;72.11;97778.69;5074814;28;20016;-79
2022/12/14 09:38:56;;;;;;;69.70;29.25;;;;;;;-4.99;71.90;97786.28;5073545;28;20028;-79
2022/12/14 09:41:33;;;;;;;68.50;29.27;;;;;;;-4.93;71.60;97780.06;5092445;28;20468;-79
2022/12/14 09:44:30;;;;;;;69.25;30.45;;;;;;;-4.90;71.85;97781.53;5091811;28;20073;-78
2022/12/14 09:47:00;;;;;;;81.78;33.17;;;;;;;-4.83;71.54;97775.09;5092483;28;20545;-79
2022/12/14 09:49:29;;;;;;;63.08;29.50;;;;;;;-4.86;71.41;97775.53;5092423;28;20023;-78
2022/12/14 09:52:00;;;;;;;82.80;33.22;;;;;;;-4.78;71.38;97779.78;5093923;28;20032;-79
2022/12/14 09:54:37;;;;;;;86.10;34.08;;;;;;;-4.74;71.50;97778.34;5093564;28;20032;-80
2022/12/14 09:57:24;;;;;;;73.80;32.60;;;;;;;-4.68;71.57;97772.13;5076488;28;20120;-77
2022/12/14 09:59:53;;;;;;;85.18;35.90;;;;;;;-4.60;71.33;97770.25;5093033;28;20123;-78
2022/12/14 10:02:27;;;;;;;80.35;33.08;;;;;;;-4.58;71.77;97760.94;5092868;28;20476;-78
2022/12/14 10:05:15;;;;;;;78.55;33.72;;;;;;;-4.47;71.34;97753.28;5093206;28;20033;-79
2022/12/14 10:07:54;;;;;;;80.13;33.60;;;;;;;-4.40;71.52;97746.81;5092612;28;20077;-79
2022/12/14 10:10:31;;;;;;;80.30;33.72;;;;;;;-4.35;71.75;97735.50;5091514;28;20032;-79
2022/12/14 10:13:14;;;;;;;73.70;31.50;;;;;;;-4.28;71.35;97741.59;5092184;28;20513;-78
2022/12/14 10:15:54;;;;;;;75.10;33.17;;;;;;;-4.24;71.52;97748.16;5092425;28;20161;-81
2022/12/14 10:18:39;;;;;;;68.00;28.70;;;;;;;-4.24;70.91;97733.97;5093109;28;20071;-80
2022/12/14 10:21:16;;;;;;;85.20;37.95;;;;;;;-4.22;71.33;97746.06;5091310;28;20071;-78
2022/12/14 10:23:53;;;;;;;74.75;35.00;;;;;;;-4.20;71.53;97741.31;5091865;28;20035;-78
2022/12/14 10:26:21;;;;;;;77.40;34.47;;;;;;;-4.19;71.31;97729.56;5092087;28;20495;-79
2022/12/14 10:29:01;;;;;;;60.88;27.73;;;;;;;-4.17;71.12;97715.97;5091920;28;20024;-81
2022/12/14 10:31:43;;;;;;;65.50;27.33;;;;;;;-4.22;70.63;97719.28;5091895;28;20161;-80
2022/12/14 10:34:17;;;;;;;56.47;25.48;;;;;;;-4.25;70.87;97719.72;5089750;28;20035;-78
2022/12/14 10:36:54;;;;;;;58.78;24.80;;;;;;;-4.21;70.92;97715.59;5090098;28;20032;-78
2022/12/14 10:39:46;;;;;;;59.13;25.80;;;;;;;-4.20;71.16;97713.75;5091532;28;20016;-79
2022/12/14 10:42:27;;;;;;;61.45;27.10;;;;;;;-4.20;70.52;97697.69;5080754;28;20036;-78
2022/12/14 10:45:32;;;;;;;57.00;23.67;;;;;;;-4.25;70.44;97695.63;5091951;28;20366;-79
2022/12/14 10:48:07;;;;;;;54.88;24.25;;;;;;;-4.21;71.32;97696.84;5071757;28;20320;-78
2022/12/14 10:50:32;;;;;;;62.50;25.58;;;;;;;-4.16;70.65;97690.00;5091431;28;20043;-80
2022/12/14 10:53:00;;;;;;;63.53;26.60;;;;;;;-4.19;70.90;97681.38;5091172;28;20028;-77
2022/12/14 10:55:34;;;;;;;58.35;26.02;;;;;;;-4.14;71.18;97683.41;5091539;28;20039;-77
2022/12/14 10:58:00;;;;;;;55.28;25.67;;;;;;;-4.09;70.88;97680.91;5089960;28;20055;-76
2022/12/14 11:00:26;;;;;;;53.38;23.20;;;;;;;-4.07;70.72;97672.63;5090402;28;20587;-77
2022/12/14 11:02:54;;;;;;;50.25;22.38;;;;;;;-4.08;70.98;97668.31;5091659;28;20028;-79
2022/12/14 11:05:35;;;;;;;51.95;22.65;;;;;;;-4.08;70.88;97662.94;5091721;28;20031;-79
2022/12/14 11:08:00;;;;;;;46.70;21.23;;;;;;;-4.07;70.64;97665.41;5091375;28;20127;-79
2022/12/14 11:10:29;;;;;;;48.47;21.55;;;;;;;-3.99;70.83;97655.44;5091187;28;20115;-78
2022/12/14 11:13:14;;;;;;;50.55;24.33;;;;;;;-3.94;71.44;97655.59;5091515;28;20035;-78
2022/12/14 11:15:44;;;;;;;51.90;24.88;;;;;;;-3.83;71.10;97646.00;5073444;28;20547;-75
2022/12/14 11:18:16;;;;;;;45.85;20.98;;;;;;;-3.73;71.21;97643.63;5092134;28;20020;-76
2022/12/14 11:20:55;;;;;;;48.53;21.95;;;;;;;-3.68;71.05;97635.72;5090663;28;20149;-78
2022/12/14 11:23:37;;;;;;;52.83;23.48;;;;;;;-3.61;70.96;97627.59;5090951;28;20111;-75
2022/12/14 11:26:29;;;;;;;56.75;27.00;;;;;;;-3.55;71.01;97623.22;5101001;28;20028;-78
2022/12/14 11:29:01;;;;;;;57.63;25.40;;;;;;;-3.48;70.86;97610.56;5094686;28;20036;-78
2022/12/14 11:31:43;;;;;;;53.05;22.27;;;;;;;-3.42;71.09;97606.94;5087993;28;20047;-80
2022/12/14 11:34:33;;;;;;;47.85;22.38;;;;;;;-3.34;71.02;97605.81;5072885;28;20024;-79
2022/12/14 11:37:19;;;;;;;50.40;22.25;;;;;;;-3.25;71.12;97599.06;5073554;28;20046;-79
2022/12/14 11:39:49;;;;;;;48.20;22.95;;;;;;;-3.19;70.79;97582.06;5090968;28;20032;-79
2022/12/14 11:42:17;;;;;;;43.33;20.17;;;;;;;-3.07;70.89;97575.94;5090731;28;20035;-79
2022/12/14 11:44:45;;;;;;;42.38;20.60;;;;;;;-3.02;70.65;97573.38;5090674;28;20020;-79
2022/12/14 11:47:15;;;;;;;42.95;19.73;;;;;;;-2.97;70.68;97573.50;5091234;28;20020;-77